Terminal Aerodrome Forecast
Issued by NWS

Home | Current Version | Previous Version | Text Only | Print | Product List | Glossary On
Versions: 1 2 3 4 5 6 7 8 9 10 11 12 13 14 15 16 17 18 19 20 21 22 23 24 25 26 27 28 29
000
FTUS44 KLIX 250520
TAFHUM
TAF
KHUM 250520Z 2506/2606 14008G16KT P6SM VCTS SCT019CB BKN040 BKN100
     FM251200 14008KT P6SM SHRA SCT025 BKN070
     FM251500 14012KT P6SM SHRA BKN060
     FM260000 15012KT P6SM BKN060=

USA.gov is the U.S. government's official web portal to all federal, state and local government web resources and services.